Time,TemperatureF,DewpointF,PressureIn,WindDirection,WindDirectionDegrees,WindSpeedMPH,WindSpeedGustMPH,Humidity,HourlyPrecipIn,Conditions,Clouds,dailyrainin,SoftwareType,DateUTC
2013-04-19 00:01:00,67.1,65.0,30.09,SSE,151,4.0,7.0,93,0.00,,---,0.00,VWS V14.00,2013-04-19 04:01:00,
2013-04-19 00:06:00,67.1,64.7,30.08,SSE,166,4.0,8.0,92,0.00,,---,0.00,VWS V14.00,2013-04-19 04:06:00,
2013-04-19 00:11:00,67.2,65.1,30.08,SSE,154,4.0,8.0,93,0.00,,---,0.00,VWS V14.00,2013-04-19 04:11:00,
2013-04-19 00:16:00,67.3,65.2,30.08,South,170,6.0,8.0,93,0.00,,---,0.00,VWS V14.00,2013-04-19 04:16:00,
2013-04-19 00:21:00,67.4,65.3,30.08,SSE,162,3.0,8.0,93,0.00,,---,0.00,VWS V14.00,2013-04-19 04:21:00,
2013-04-19 00:26:00,67.5,65.1,30.08,SSE,155,4.0,8.0,92,0.00,,---,0.00,VWS V14.00,2013-04-19 04:26:00,
2013-04-19 00:31:00,67.6,65.2,30.08,SSE,160,4.0,8.0,92,0.00,,---,0.00,VWS V14.00,2013-04-19 04:31:00,
2013-04-19 00:36:00,67.7,65.3,30.08,SSE,157,3.0,9.0,92,0.00,,---,0.00,VWS V14.00,2013-04-19 04:36:00,
2013-04-19 00:41:00,67.7,65.3,30.08,SSE,167,3.0,9.0,92,0.00,,---,0.00,VWS V14.00,2013-04-19 04:41:00,
2013-04-19 00:46:00,67.7,65.3,30.08,SSE,156,5.0,12.0,92,0.00,,---,0.00,VWS V14.00,2013-04-19 04:46:00,
2013-04-19 00:52:00,67.9,65.8,30.08,SSE,159,5.0,12.0,93,0.00,,---,0.00,VWS V14.00,2013-04-19 04:52:00,
2013-04-19 00:57:00,68.0,65.6,30.07,SSE,161,4.0,12.0,92,0.00,,---,0.00,VWS V14.00,2013-04-19 04:57:00,
2013-04-19 01:02:00,68.0,65.6,30.07,SSE,160,6.0,10.0,92,0.00,,---,0.00,VWS V14.00,2013-04-19 05:02:00,
2013-04-19 01:07:00,68.0,65.6,30.07,South,175,5.0,10.0,92,0.00,,---,0.00,VWS V14.00,2013-04-19 05:07:00,
2013-04-19 01:12:00,68.0,65.6,30.07,South,173,7.0,10.0,92,0.00,,---,0.00,VWS V14.00,2013-04-19 05:12:00,
2013-04-19 01:17:00,68.1,65.7,30.07,South,174,5.0,10.0,92,0.00,,---,0.00,VWS V14.00,2013-04-19 05:17:00,
2013-04-19 01:22:00,68.0,65.6,30.06,SSE,168,7.0,10.0,92,0.00,,---,0.00,VWS V14.00,2013-04-19 05:22:00,
2013-04-19 01:27:00,68.0,65.9,30.06,South,172,5.0,11.0,93,0.00,,---,0.00,VWS V14.00,2013-04-19 05:27:00,
2013-04-19 01:32:00,68.1,66.0,30.06,SSE,166,8.0,11.0,93,0.00,,---,0.00,VWS V14.00,2013-04-19 05:32:00,
2013-04-19 01:37:00,68.2,66.1,30.05,South,181,9.0,11.0,93,0.00,,---,0.00,VWS V14.00,2013-04-19 05:37:00,
2013-04-19 01:42:00,68.2,66.1,30.05,SSE,162,6.0,11.0,93,0.00,,---,0.00,VWS V14.00,2013-04-19 05:42:00,
2013-04-19 01:47:00,68.3,66.2,30.05,SSE,160,6.0,11.0,93,0.00,,---,0.00,VWS V14.00,2013-04-19 05:47:00,
2013-04-19 01:52:00,68.4,66.0,30.05,SSE,164,5.0,11.0,92,0.00,,---,0.00,VWS V14.00,2013-04-19 05:52:00,
2013-04-19 01:57:00,68.5,66.4,30.05,SSE,157,4.0,11.0,93,0.00,,---,0.00,VWS V14.00,2013-04-19 05:57:00,
2013-04-19 02:02:00,68.5,66.4,30.05,SSE,166,7.0,8.0,93,0.00,,---,0.00,VWS V14.00,2013-04-19 06:02:00,
2013-04-19 02:07:00,68.5,66.4,30.04,SSE,163,5.0,10.0,93,0.00,,---,0.00,VWS V14.00,2013-04-19 06:07:00,
2013-04-19 02:12:00,68.6,66.5,30.03,SSE,162,5.0,10.0,93,0.00,,---,0.00,VWS V14.00,2013-04-19 06:12:00,
2013-04-19 02:17:00,68.5,66.4,30.03,SSE,154,11.0,12.0,93,0.00,,---,0.00,VWS V14.00,2013-04-19 06:17:00,
2013-04-19 02:22:00,68.5,66.4,30.03,SE,145,3.0,12.0,93,0.00,,---,0.00,VWS V14.00,2013-04-19 06:22:00,
2013-04-19 02:27:00,68.5,66.4,30.03,SSE,149,6.0,12.0,93,0.00,,---,0.00,VWS V14.00,2013-04-19 06:27:00,
2013-04-19 02:32:00,68.5,66.4,30.03,SSE,158,6.0,8.0,93,0.00,,---,0.00,VWS V14.00,2013-04-19 06:32:00,
2013-04-19 02:37:00,68.4,66.3,30.02,SSE,166,6.0,8.0,93,0.00,,---,0.00,VWS V14.00,2013-04-19 06:37:00,
2013-04-19 02:42:00,68.3,66.2,30.02,SSE,160,8.0,8.0,93,0.00,,---,0.00,VWS V14.00,2013-04-19 06:42:00,
2013-04-19 02:47:00,68.4,66.3,30.02,South,177,8.0,10.0,93,0.00,,---,0.00,VWS V14.00,2013-04-19 06:47:00,
2013-04-19 02:52:00,68.4,66.3,30.01,SE,145,7.0,11.0,93,0.00,,---,0.00,VWS V14.00,2013-04-19 06:52:00,
2013-04-19 02:57:00,68.4,66.3,30.01,SSE,156,8.0,11.0,93,0.00,,---,0.00,VWS V14.00,2013-04-19 06:57:00,
2013-04-19 03:02:00,68.5,66.4,30.01,South,177,9.0,12.0,93,0.00,,---,0.00,VWS V14.00,2013-04-19 07:02:00,
2013-04-19 03:07:00,68.6,66.5,30.01,South,170,17.0,22.0,93,0.00,,---,0.00,VWS V14.00,2013-04-19 07:07:00,
2013-04-19 03:12:00,68.9,66.5,30.01,SSE,161,9.0,22.0,92,0.00,,---,0.00,VWS V14.00,2013-04-19 07:12:00,
2013-04-19 03:17:00,68.9,66.8,30.01,South,174,13.0,22.0,93,0.00,,---,0.00,VWS V14.00,2013-04-19 07:17:00,
2013-04-19 03:22:00,68.8,66.7,30.01,South,173,11.0,22.0,93,0.00,,---,0.00,VWS V14.00,2013-04-19 07:22:00,
2013-04-19 03:27:00,68.5,66.1,30.01,South,187,12.0,23.0,92,0.00,,---,0.00,VWS V14.00,2013-04-19 07:27:00,
2013-04-19 03:32:00,68.1,65.7,30.01,SSW,193,9.0,20.0,92,0.00,,---,0.00,VWS V14.00,2013-04-19 07:32:00,
2013-04-19 03:37:00,67.6,65.2,30.01,SSW,199,17.0,22.0,92,0.00,,---,0.00,VWS V14.00,2013-04-19 07:37:00,
2013-04-19 03:42:00,67.4,65.3,30.01,South,178,11.0,22.0,93,0.00,,---,0.00,VWS V14.00,2013-04-19 07:42:00,
2013-04-19 03:47:00,67.1,65.0,30.01,South,187,10.0,22.0,93,0.00,,---,0.01,VWS V14.00,2013-04-19 07:47:00,
2013-04-19 03:52:00,66.8,65.0,30.02,South,177,8.0,22.0,94,0.00,,---,0.01,VWS V14.00,2013-04-19 07:52:00,
2013-04-19 03:57:00,66.7,64.9,30.01,SSE,148,5.0,22.0,94,0.28,,---,0.03,VWS V14.00,2013-04-19 07:57:00,
2013-04-19 04:02:00,66.6,64.8,30.01,SSE,164,5.0,9.0,94,0.09,,---,0.03,VWS V14.00,2013-04-19 08:02:00,
2013-04-19 04:07:00,66.5,64.7,30.01,SE,145,5.0,9.0,94,0.05,,---,0.03,VWS V14.00,2013-04-19 08:07:00,
2013-04-19 04:12:00,66.5,65.0,30.01,South,172,0.0,9.0,95,0.04,,---,0.03,VWS V14.00,2013-04-19 08:12:00,
2013-04-19 04:17:00,66.5,65.0,30.00,South,181,4.0,9.0,95,0.00,,---,0.03,VWS V14.00,2013-04-19 08:17:00,
2013-04-19 04:22:00,66.6,65.1,30.00,SSE,168,0.0,9.0,95,0.00,,---,0.03,VWS V14.00,2013-04-19 08:22:00,
2013-04-19 04:27:00,66.6,65.1,30.00,South,169,2.0,9.0,95,0.00,,---,0.03,VWS V14.00,2013-04-19 08:27:00,
2013-04-19 04:32:00,66.7,65.2,30.00,SSE,151,4.0,6.0,95,0.00,,---,0.03,VWS V14.00,2013-04-19 08:32:00,
2013-04-19 04:37:00,66.8,65.3,30.00,SSE,159,4.0,7.0,95,0.00,,---,0.03,VWS V14.00,2013-04-19 08:37:00,
2013-04-19 04:42:00,66.8,65.3,30.00,SSE,158,4.0,7.0,95,0.00,,---,0.03,VWS V14.00,2013-04-19 08:42:00,
2013-04-19 04:47:00,66.9,65.7,30.00,SE,144,5.0,9.0,96,0.00,,---,0.03,VWS V14.00,2013-04-19 08:47:00,
2013-04-19 04:52:00,66.9,65.7,30.00,SSE,164,5.0,9.0,96,0.00,,---,0.03,VWS V14.00,2013-04-19 08:52:00,
2013-04-19 04:57:00,67.0,65.8,29.99,SSE,162,6.0,11.0,96,0.00,,---,0.03,VWS V14.00,2013-04-19 08:57:00,
2013-04-19 05:02:00,67.0,65.8,30.00,SSE,166,8.0,10.0,96,0.00,,---,0.03,VWS V14.00,2013-04-19 09:02:00,
2013-04-19 05:07:00,67.0,65.8,30.00,South,185,7.0,10.0,96,0.00,,---,0.03,VWS V14.00,2013-04-19 09:07:00,
2013-04-19 05:12:00,67.0,65.8,30.00,South,182,7.0,11.0,96,0.00,,---,0.03,VWS V14.00,2013-04-19 09:12:00,
2013-04-19 05:17:00,67.1,65.9,30.00,SSW,195,8.0,11.0,96,0.00,,---,0.03,VWS V14.00,2013-04-19 09:17:00,
2013-04-19 05:22:00,67.2,66.0,30.00,South,172,6.0,11.0,96,0.00,,---,0.03,VWS V14.00,2013-04-19 09:22:00,
2013-04-19 05:27:00,67.2,66.0,30.00,South,191,6.0,11.0,96,0.00,,---,0.03,VWS V14.00,2013-04-19 09:27:00,
2013-04-19 05:32:00,67.2,65.7,30.00,South,175,9.0,11.0,95,0.00,,---,0.03,VWS V14.00,2013-04-19 09:32:00,
2013-04-19 05:37:00,67.3,65.8,29.99,South,179,7.0,12.0,95,0.00,,---,0.03,VWS V14.00,2013-04-19 09:37:00,
2013-04-19 05:42:00,67.5,66.0,30.00,South,177,10.0,13.0,95,0.00,,---,0.03,VWS V14.00,2013-04-19 09:42:00,
2013-04-19 05:47:00,67.6,66.1,29.99,South,183,7.0,13.0,95,0.00,,---,0.03,VWS V14.00,2013-04-19 09:47:00,
2013-04-19 05:52:00,67.5,66.0,29.99,SSE,162,6.0,13.0,95,0.00,,---,0.03,VWS V14.00,2013-04-19 09:52:00,
2013-04-19 05:57:00,67.5,66.0,29.99,SSE,153,9.0,13.0,95,0.00,,---,0.03,VWS V14.00,2013-04-19 09:57:00,
2013-04-19 06:02:00,67.4,65.9,29.99,South,184,6.0,9.0,95,0.00,,---,0.03,VWS V14.00,2013-04-19 10:02:00,
2013-04-19 06:07:00,67.3,65.8,29.99,South,175,7.0,12.0,95,0.00,,---,0.03,VWS V14.00,2013-04-19 10:07:00,
2013-04-19 06:12:00,67.2,65.7,29.99,South,172,7.0,12.0,95,0.00,,---,0.03,VWS V14.00,2013-04-19 10:12:00,
2013-04-19 06:17:00,67.1,65.6,29.99,SSE,167,9.0,12.0,95,0.00,,---,0.03,VWS V14.00,2013-04-19 10:17:00,
2013-04-19 06:22:00,67.1,65.6,30.00,South,179,7.0,12.0,95,0.00,,---,0.03,VWS V14.00,2013-04-19 10:22:00,
2013-04-19 06:27:00,67.1,65.6,30.00,SSW,196,7.0,12.0,95,0.00,,---,0.03,VWS V14.00,2013-04-19 10:27:00,
2013-04-19 06:32:00,67.1,65.6,30.00,South,185,7.0,11.0,95,0.00,,---,0.03,VWS V14.00,2013-04-19 10:32:00,
2013-04-19 06:37:00,67.0,65.5,30.00,South,183,5.0,11.0,95,0.00,,---,0.03,VWS V14.00,2013-04-19 10:37:00,
2013-04-19 06:42:00,67.0,65.5,30.00,South,189,8.0,12.0,95,0.00,,---,0.03,VWS V14.00,2013-04-19 10:42:00,
2013-04-19 06:47:00,67.0,65.5,30.00,South,183,7.0,12.0,95,0.00,,---,0.03,VWS V14.00,2013-04-19 10:47:00,
2013-04-19 06:52:00,66.9,65.4,30.00,South,171,6.0,12.0,95,0.00,,---,0.03,VWS V14.00,2013-04-19 10:52:00,
2013-04-19 06:57:00,66.9,65.4,30.00,South,172,7.0,12.0,95,0.00,,---,0.03,VWS V14.00,2013-04-19 10:57:00,
2013-04-19 07:02:00,66.9,65.4,30.00,South,183,5.0,11.0,95,0.00,,---,0.03,VWS V14.00,2013-04-19 11:02:00,
2013-04-19 07:07:00,66.9,65.4,30.00,South,187,8.0,11.0,95,0.00,,---,0.03,VWS V14.00,2013-04-19 11:07:00,
2013-04-19 07:12:00,67.0,65.5,30.01,South,178,5.0,11.0,95,0.00,,---,0.03,VWS V14.00,2013-04-19 11:12:00,
2013-04-19 07:17:00,67.0,65.5,30.01,South,181,6.0,11.0,95,0.00,,---,0.03,VWS V14.00,2013-04-19 11:17:00,
2013-04-19 07:22:00,67.1,65.6,30.01,South,184,6.0,11.0,95,0.00,,---,0.03,VWS V14.00,2013-04-19 11:22:00,
2013-04-19 07:27:00,67.2,65.7,30.01,South,177,4.0,11.0,95,0.00,,---,0.03,VWS V14.00,2013-04-19 11:27:00,
2013-04-19 07:32:00,67.4,65.9,30.01,South,186,6.0,10.0,95,0.00,,---,0.03,VWS V14.00,2013-04-19 11:32:00,
2013-04-19 07:37:00,67.5,66.0,30.01,SSE,160,7.0,10.0,95,0.00,,---,0.03,VWS V14.00,2013-04-19 11:37:00,
2013-04-19 07:42:00,67.6,66.1,30.01,South,172,5.0,10.0,95,0.00,,---,0.03,VWS V14.00,2013-04-19 11:42:00,
2013-04-19 07:47:00,67.7,66.2,30.01,South,169,5.0,10.0,95,0.00,,---,0.03,VWS V14.00,2013-04-19 11:47:00,
2013-04-19 07:52:00,67.7,66.2,30.01,South,179,6.0,10.0,95,0.00,,---,0.03,VWS V14.00,2013-04-19 11:52:00,
2013-04-19 07:57:00,68.0,66.5,30.01,South,177,7.0,11.0,95,0.00,,---,0.03,VWS V14.00,2013-04-19 11:57:00,
2013-04-19 08:02:00,68.2,66.7,30.01,SSE,166,4.0,9.0,95,0.00,,---,0.03,VWS V14.00,2013-04-19 12:02:00,
2013-04-19 08:07:00,68.5,67.0,30.01,SSE,168,5.0,9.0,95,0.00,,---,0.03,VWS V14.00,2013-04-19 12:07:00,
2013-04-19 08:12:00,68.8,67.3,30.01,South,170,7.0,10.0,95,0.00,,---,0.03,VWS V14.00,2013-04-19 12:12:00,
2013-04-19 08:17:00,69.0,67.5,30.01,South,187,7.0,10.0,95,0.00,,---,0.03,VWS V14.00,2013-04-19 12:17:00,
2013-04-19 08:22:00,69.3,67.5,30.01,South,187,9.0,13.0,94,0.00,,---,0.03,VWS V14.00,2013-04-19 12:22:00,
2013-04-19 08:27:00,69.7,67.9,30.01,South,185,5.0,13.0,94,0.00,,---,0.03,VWS V14.00,2013-04-19 12:27:00,
2013-04-19 08:32:00,70.1,68.3,30.01,South,185,10.0,11.0,94,0.00,,---,0.03,VWS V14.00,2013-04-19 12:32:00,
2013-04-19 08:37:00,70.3,68.2,30.01,South,187,4.0,11.0,93,0.00,,---,0.03,VWS V14.00,2013-04-19 12:37:00,
2013-04-19 08:42:00,70.6,68.5,30.01,SSW,196,7.0,11.0,93,0.00,,---,0.03,VWS V14.00,2013-04-19 12:42:00,
2013-04-19 08:47:00,70.8,68.7,30.01,South,185,5.0,11.0,93,0.00,,---,0.03,VWS V14.00,2013-04-19 12:47:00,
2013-04-19 08:52:00,71.0,68.9,30.02,South,184,7.0,14.0,93,0.00,,---,0.03,VWS V14.00,2013-04-19 12:52:00,
2013-04-19 08:57:00,71.4,69.3,30.01,SSW,208,10.0,14.0,93,0.00,,---,0.03,VWS V14.00,2013-04-19 12:57:00,
2013-04-19 09:02:00,71.8,69.3,30.01,SSW,202,10.0,16.0,92,0.00,,---,0.03,VWS V14.00,2013-04-19 13:02:00,
2013-04-19 09:07:00,72.1,69.7,30.01,South,191,9.0,16.0,92,0.00,,---,0.03,VWS V14.00,2013-04-19 13:07:00,
2013-04-19 09:12:00,72.5,70.1,30.01,SSW,204,8.0,16.0,92,0.00,,---,0.03,VWS V14.00,2013-04-19 13:12:00,
2013-04-19 09:17:00,73.1,70.3,30.01,South,187,12.0,19.0,91,0.00,,---,0.03,VWS V14.00,2013-04-19 13:17:00,
2013-04-19 09:22:00,73.6,70.8,30.01,SSW,194,12.0,19.0,91,0.00,,---,0.03,VWS V14.00,2013-04-19 13:22:00,
2013-04-19 09:27:00,73.7,70.3,30.01,South,169,16.0,19.0,89,0.00,,---,0.03,VWS V14.00,2013-04-19 13:27:00,
2013-04-19 09:32:00,73.9,70.5,30.01,SSW,204,16.0,19.0,89,0.00,,---,0.03,VWS V14.00,2013-04-19 13:32:00,
2013-04-19 09:37:00,74.0,70.2,30.01,SSE,168,13.0,19.0,88,0.00,,---,0.03,VWS V14.00,2013-04-19 13:37:00,
2013-04-19 09:42:00,74.2,70.4,30.01,SSW,195,11.0,20.0,88,0.00,,---,0.03,VWS V14.00,2013-04-19 13:42:00,
2013-04-19 09:47:00,73.9,69.8,30.01,South,173,11.0,20.0,87,0.00,,---,0.03,VWS V14.00,2013-04-19 13:47:00,
2013-04-19 09:52:00,73.5,70.1,30.02,South,190,12.0,21.0,89,0.00,,---,0.03,VWS V14.00,2013-04-19 13:52:00,
2013-04-19 09:57:00,73.5,69.7,30.02,South,182,11.0,21.0,88,0.00,,---,0.03,VWS V14.00,2013-04-19 13:57:00,
2013-04-19 10:02:00,73.3,69.5,30.02,South,188,17.0,20.0,88,0.00,,---,0.03,VWS V14.00,2013-04-19 14:02:00,
2013-04-19 10:07:00,73.4,70.0,30.02,South,188,17.0,20.0,89,0.00,,---,0.03,VWS V14.00,2013-04-19 14:07:00,
2013-04-19 10:12:00,73.5,70.1,30.01,SSE,167,12.0,22.0,89,0.00,,---,0.03,VWS V14.00,2013-04-19 14:12:00,
2013-04-19 10:17:00,73.5,70.1,30.01,South,191,15.0,23.0,89,0.00,,---,0.03,VWS V14.00,2013-04-19 14:17:00,
2013-04-19 10:22:00,74.1,70.3,30.01,South,181,18.0,23.0,88,0.00,,---,0.03,VWS V14.00,2013-04-19 14:22:00,
2013-04-19 10:27:00,74.9,71.1,30.01,South,189,12.0,23.0,88,0.00,,---,0.03,VWS V14.00,2013-04-19 14:27:00,
2013-04-19 10:32:00,75.5,71.0,30.01,South,173,10.0,17.0,86,0.00,,---,0.03,VWS V14.00,2013-04-19 14:32:00,
2013-04-19 10:37:00,76.1,71.6,30.01,South,188,11.0,19.0,86,0.00,,---,0.03,VWS V14.00,2013-04-19 14:37:00,
2013-04-19 10:42:00,76.2,71.4,30.01,SSE,164,10.0,21.0,85,0.00,,---,0.03,VWS V14.00,2013-04-19 14:42:00,
2013-04-19 10:47:00,76.3,71.8,30.01,South,184,12.0,21.0,86,0.00,,---,0.03,VWS V14.00,2013-04-19 14:47:00,
2013-04-19 10:52:00,76.9,71.3,30.01,SSE,168,7.0,21.0,83,0.00,,---,0.03,VWS V14.00,2013-04-19 14:52:00,
2013-04-19 10:57:00,76.6,71.1,30.01,SSW,192,14.0,21.0,83,0.00,,---,0.03,VWS V14.00,2013-04-19 14:57:00,
2013-04-19 11:02:00,76.2,70.7,30.01,South,169,12.0,23.0,83,0.00,,---,0.03,VWS V14.00,2013-04-19 15:02:00,
2013-04-19 11:07:00,76.0,70.5,30.01,South,181,12.0,23.0,83,0.00,,---,0.03,VWS V14.00,2013-04-19 15:07:00,
2013-04-19 11:12:00,75.2,70.4,30.01,South,177,13.0,23.0,85,0.00,,---,0.03,VWS V14.00,2013-04-19 15:12:00,
2013-04-19 11:17:00,74.6,69.8,30.00,South,179,17.0,23.0,85,0.00,,---,0.03,VWS V14.00,2013-04-19 15:17:00,
2013-04-19 11:22:00,74.1,70.0,30.00,South,189,14.0,23.0,87,0.00,,---,0.03,VWS V14.00,2013-04-19 15:22:00,
2013-04-19 11:27:00,74.1,70.0,30.00,South,184,11.0,23.0,87,0.00,,---,0.03,VWS V14.00,2013-04-19 15:27:00,
2013-04-19 11:32:00,73.5,69.7,30.00,South,189,11.0,24.0,88,0.00,,---,0.04,VWS V14.00,2013-04-19 15:32:00,
2013-04-19 11:37:00,72.7,69.9,30.00,South,181,12.0,24.0,91,0.00,,---,0.04,VWS V14.00,2013-04-19 15:37:00,
2013-04-19 11:42:00,72.4,69.9,30.00,SSW,205,15.0,24.0,92,0.00,,---,0.04,VWS V14.00,2013-04-19 15:42:00,
2013-04-19 11:47:00,73.1,70.6,30.00,SSW,195,18.0,24.0,92,0.00,,---,0.04,VWS V14.00,2013-04-19 15:47:00,
2013-04-19 11:52:00,74.0,71.5,30.00,SSW,199,15.0,24.0,92,0.00,,---,0.04,VWS V14.00,2013-04-19 15:52:00,
2013-04-19 11:57:00,75.1,71.3,29.99,South,185,11.0,24.0,88,0.00,,---,0.04,VWS V14.00,2013-04-19 15:57:00,
2013-04-19 12:02:00,75.4,70.9,29.99,SSW,193,22.0,22.0,86,0.00,,---,0.04,VWS V14.00,2013-04-19 16:02:00,
2013-04-19 12:07:00,75.9,71.4,29.99,South,174,16.0,25.0,86,0.00,,---,0.04,VWS V14.00,2013-04-19 16:07:00,
2013-04-19 12:12:00,76.9,71.7,29.99,SSE,160,21.0,25.0,84,0.00,,---,0.04,VWS V14.00,2013-04-19 16:12:00,
2013-04-19 12:17:00,77.1,71.5,29.99,SSW,210,21.0,25.0,83,0.00,,---,0.04,VWS V14.00,2013-04-19 16:17:00,
2013-04-19 12:22:00,76.3,71.5,29.99,SSE,168,10.0,27.0,85,0.00,,---,0.04,VWS V14.00,2013-04-19 16:22:00,
2013-04-19 12:27:00,75.7,70.9,29.98,SSW,195,21.0,27.0,85,0.00,,---,0.04,VWS V14.00,2013-04-19 16:27:00,
2013-04-19 12:32:00,74.9,70.4,29.98,South,180,19.0,30.0,86,0.00,,---,0.04,VWS V14.00,2013-04-19 16:32:00,
2013-04-19 12:37:00,74.7,70.2,29.98,South,191,15.0,30.0,86,0.00,,---,0.04,VWS V14.00,2013-04-19 16:37:00,
2013-04-19 12:42:00,74.0,70.2,29.98,South,170,19.0,30.0,88,0.00,,---,0.04,VWS V14.00,2013-04-19 16:42:00,
2013-04-19 12:47:00,73.5,70.1,29.98,South,187,17.0,30.0,89,0.00,,---,0.04,VWS V14.00,2013-04-19 16:47:00,
2013-04-19 12:52:00,73.6,70.2,29.98,South,182,11.0,30.0,89,0.00,,---,0.04,VWS V14.00,2013-04-19 16:52:00,
2013-04-19 12:58:00,73.9,69.8,29.98,SSW,194,13.0,30.0,87,0.00,,---,0.04,VWS V14.00,2013-04-19 16:58:00,
2013-04-19 13:03:00,74.1,70.0,29.98,SSW,206,16.0,22.0,87,0.00,,---,0.04,VWS V14.00,2013-04-19 17:03:00,
2013-04-19 13:08:00,74.5,70.7,29.98,South,186,16.0,22.0,88,0.00,,---,0.04,VWS V14.00,2013-04-19 17:08:00,
2013-04-19 13:13:00,75.7,71.2,29.98,SW,222,24.0,26.0,86,0.00,,---,0.04,VWS V14.00,2013-04-19 17:13:00,
2013-04-19 13:18:00,76.1,71.3,29.97,SSW,199,12.0,26.0,85,0.00,,---,0.04,VWS V14.00,2013-04-19 17:18:00,
2013-04-19 13:23:00,77.0,72.2,29.97,South,187,16.0,26.0,85,0.00,,---,0.04,VWS V14.00,2013-04-19 17:23:00,
2013-04-19 13:28:00,77.2,72.0,29.97,SSW,195,20.0,29.0,84,0.00,,---,0.04,VWS V14.00,2013-04-19 17:28:00,
2013-04-19 13:33:00,76.9,71.7,29.97,South,173,20.0,24.0,84,0.00,,---,0.04,VWS V14.00,2013-04-19 17:33:00,
2013-04-19 13:38:00,76.6,71.8,29.96,SSE,157,16.0,26.0,85,0.00,,---,0.04,VWS V14.00,2013-04-19 17:38:00,
2013-04-19 13:43:00,76.2,71.4,29.96,SSW,197,15.0,29.0,85,0.00,,---,0.04,VWS V14.00,2013-04-19 17:43:00,
2013-04-19 13:48:00,76.1,70.9,29.96,South,171,17.0,29.0,84,0.00,,---,0.04,VWS V14.00,2013-04-19 17:48:00,
2013-04-19 13:53:00,75.4,70.6,29.96,South,181,12.0,29.0,85,0.00,,---,0.04,VWS V14.00,2013-04-19 17:53:00,
2013-04-19 13:58:00,74.4,70.3,29.97,South,187,18.0,29.0,87,0.00,,---,0.04,VWS V14.00,2013-04-19 17:58:00,
2013-04-19 14:03:00,73.7,70.3,29.97,SSW,200,16.0,21.0,89,0.00,,---,0.05,VWS V14.00,2013-04-19 18:03:00,
2013-04-19 14:08:00,71.8,68.7,29.97,SSW,207,11.0,21.0,90,0.21,,---,0.11,VWS V14.00,2013-04-19 18:08:00,
2013-04-19 14:13:00,72.1,70.3,29.96,South,190,16.0,21.0,94,0.11,,---,0.11,VWS V14.00,2013-04-19 18:13:00,
2013-04-19 14:18:00,72.5,70.4,29.96,South,185,17.0,24.0,93,0.06,,---,0.11,VWS V14.00,2013-04-19 18:18:00,
2013-04-19 14:23:00,72.2,70.1,29.96,SSE,167,18.0,24.0,93,0.04,,---,0.11,VWS V14.00,2013-04-19 18:23:00,
2013-04-19 14:28:00,72.0,69.9,29.95,South,190,18.0,24.0,93,0.00,,---,0.11,VWS V14.00,2013-04-19 18:28:00,
2013-04-19 14:33:00,72.2,70.1,29.95,South,183,17.0,19.0,93,0.00,,---,0.11,VWS V14.00,2013-04-19 18:33:00,
2013-04-19 14:38:00,72.0,69.6,29.95,South,182,13.0,22.0,92,0.00,,---,0.11,VWS V14.00,2013-04-19 18:38:00,
2013-04-19 14:43:00,72.4,70.3,29.95,SSE,166,9.0,23.0,93,0.00,,---,0.12,VWS V14.00,2013-04-19 18:43:00,
2013-04-19 14:48:00,73.2,69.8,29.94,South,190,18.0,25.0,89,0.00,,---,0.12,VWS V14.00,2013-04-19 18:48:00,
2013-04-19 14:53:00,74.0,70.2,29.94,SSW,196,28.0,29.0,88,0.00,,---,0.12,VWS V14.00,2013-04-19 18:53:00,
2013-04-19 14:58:00,73.8,69.3,29.94,SSW,196,16.0,20.0,86,0.00,,---,0.12,VWS V14.00,2013-04-19 18:58:00,
2013-04-19 15:03:00,73.6,69.2,29.94,SSW,199,13.0,30.0,86,0.00,,---,0.12,VWS V14.00,2013-04-19 19:03:00,
2013-04-19 15:08:00,73.5,69.1,29.94,SSW,194,12.0,30.0,86,0.00,,---,0.12,VWS V14.00,2013-04-19 19:08:00,
2013-04-19 15:13:00,73.8,69.7,29.93,SSE,160,18.0,30.0,87,0.00,,---,0.12,VWS V14.00,2013-04-19 19:13:00,
2013-04-19 15:18:00,74.0,69.9,29.93,South,180,14.0,30.0,87,0.00,,---,0.12,VWS V14.00,2013-04-19 19:18:00,
2013-04-19 15:23:00,73.9,69.1,29.92,South,171,17.0,30.0,85,0.00,,---,0.12,VWS V14.00,2013-04-19 19:23:00,
2013-04-19 15:28:00,73.4,68.3,29.93,South,175,16.0,19.0,84,0.00,,---,0.12,VWS V14.00,2013-04-19 19:28:00,
2013-04-19 15:33:00,73.0,68.6,29.93,South,183,17.0,25.0,86,0.00,,---,0.12,VWS V14.00,2013-04-19 19:33:00,
2013-04-19 15:38:00,73.1,68.3,29.92,South,187,22.0,25.0,85,0.00,,---,0.12,VWS V14.00,2013-04-19 19:38:00,
2013-04-19 15:43:00,73.3,68.5,29.92,SSW,199,24.0,27.0,85,0.00,,---,0.12,VWS V14.00,2013-04-19 19:43:00,
2013-04-19 15:48:00,73.2,68.1,29.93,South,176,23.0,27.0,84,0.00,,---,0.12,VWS V14.00,2013-04-19 19:48:00,
2013-04-19 15:53:00,73.3,68.2,29.92,South,183,16.0,27.0,84,0.00,,---,0.12,VWS V14.00,2013-04-19 19:53:00,
2013-04-19 15:58:00,73.7,68.6,29.92,South,170,17.0,17.0,84,0.00,,---,0.12,VWS V14.00,2013-04-19 19:58:00,
2013-04-19 16:03:00,73.3,68.2,29.92,South,185,10.0,26.0,84,0.00,,---,0.12,VWS V14.00,2013-04-19 20:03:00,
2013-04-19 16:08:00,73.3,67.8,29.92,South,183,20.0,26.0,83,0.00,,---,0.12,VWS V14.00,2013-04-19 20:08:00,
2013-04-19 16:13:00,73.3,68.2,29.92,South,185,21.0,26.0,84,0.00,,---,0.12,VWS V14.00,2013-04-19 20:13:00,
2013-04-19 16:18:00,73.2,67.7,29.92,SSW,200,12.0,26.0,83,0.00,,---,0.12,VWS V14.00,2013-04-19 20:18:00,
2013-04-19 16:23:00,73.0,67.2,29.92,SSE,164,16.0,26.0,82,0.00,,---,0.12,VWS V14.00,2013-04-19 20:23:00,
2013-04-19 16:28:00,72.6,67.2,29.91,SW,222,20.0,20.0,83,0.00,,---,0.12,VWS V14.00,2013-04-19 20:28:00,
2013-04-19 16:33:00,72.3,66.8,29.91,South,185,17.0,26.0,83,0.00,,---,0.12,VWS V14.00,2013-04-19 20:33:00,
2013-04-19 16:38:00,72.0,67.2,29.91,South,173,12.0,26.0,85,0.00,,---,0.12,VWS V14.00,2013-04-19 20:38:00,
2013-04-19 16:43:00,71.7,67.3,29.92,South,186,15.0,26.0,86,0.00,,---,0.12,VWS V14.00,2013-04-19 20:43:00,
2013-04-19 16:48:00,71.2,66.8,29.92,South,187,23.0,26.0,86,0.00,,---,0.12,VWS V14.00,2013-04-19 20:48:00,
2013-04-19 16:53:00,70.8,66.7,29.92,SSW,202,16.0,26.0,87,0.00,,---,0.12,VWS V14.00,2013-04-19 20:53:00,
2013-04-19 16:58:00,70.6,66.9,29.92,South,181,15.0,18.0,88,0.00,,---,0.12,VWS V14.00,2013-04-19 20:58:00,
2013-04-19 17:03:00,70.5,67.1,29.92,SSW,196,15.0,21.0,89,0.00,,---,0.12,VWS V14.00,2013-04-19 21:03:00,
2013-04-19 17:08:00,70.6,67.2,29.92,South,184,13.0,22.0,89,0.00,,---,0.12,VWS V14.00,2013-04-19 21:08:00,
2013-04-19 17:13:00,70.6,67.2,29.92,SSW,199,22.0,22.0,89,0.00,,---,0.12,VWS V14.00,2013-04-19 21:13:00,
2013-04-19 17:18:00,70.6,67.2,29.92,South,184,13.0,26.0,89,0.00,,---,0.12,VWS V14.00,2013-04-19 21:18:00,
2013-04-19 17:23:00,70.6,67.2,29.91,South,191,11.0,26.0,89,0.00,,---,0.12,VWS V14.00,2013-04-19 21:23:00,
2013-04-19 17:28:00,70.7,67.6,29.91,SSW,195,13.0,15.0,90,0.00,,---,0.12,VWS V14.00,2013-04-19 21:28:00,
2013-04-19 17:33:00,70.7,67.3,29.91,South,184,15.0,21.0,89,0.00,,---,0.12,VWS V14.00,2013-04-19 21:33:00,
2013-04-19 17:38:00,70.7,67.3,29.91,SSW,195,14.0,21.0,89,0.00,,---,0.12,VWS V14.00,2013-04-19 21:38:00,
2013-04-19 17:43:00,70.7,67.3,29.91,SSW,200,13.0,22.0,89,0.00,,---,0.12,VWS V14.00,2013-04-19 21:43:00,
2013-04-19 17:48:00,70.8,67.4,29.91,South,180,14.0,22.0,89,0.00,,---,0.12,VWS V14.00,2013-04-19 21:48:00,
2013-04-19 17:53:00,70.8,67.4,29.91,South,191,18.0,23.0,89,0.00,,---,0.12,VWS V14.00,2013-04-19 21:53:00,
2013-04-19 17:58:00,70.8,67.4,29.91,South,179,13.0,17.0,89,0.00,,---,0.12,VWS V14.00,2013-04-19 21:58:00,
2013-04-19 18:03:00,71.1,67.7,29.91,South,187,15.0,21.0,89,0.00,,---,0.12,VWS V14.00,2013-04-19 22:03:00,
2013-04-19 18:08:00,71.3,67.6,29.91,South,189,11.0,26.0,88,0.00,,---,0.12,VWS V14.00,2013-04-19 22:08:00,
2013-04-19 18:13:00,71.5,67.8,29.90,South,191,15.0,26.0,88,0.00,,---,0.12,VWS V14.00,2013-04-19 22:13:00,
2013-04-19 18:18:00,71.2,67.1,29.90,SSE,154,15.0,27.0,87,0.00,,---,0.12,VWS V14.00,2013-04-19 22:18:00,
2013-04-19 18:23:00,71.1,67.4,29.90,South,191,15.0,27.0,88,0.00,,---,0.12,VWS V14.00,2013-04-19 22:23:00,
2013-04-19 18:28:00,70.8,67.1,29.91,SSE,165,10.0,15.0,88,0.00,,---,0.12,VWS V14.00,2013-04-19 22:28:00,
2013-04-19 18:33:00,70.7,67.3,29.90,South,176,17.0,23.0,89,0.00,,---,0.12,VWS V14.00,2013-04-19 22:33:00,
2013-04-19 18:38:00,70.3,66.9,29.91,South,178,18.0,24.0,89,0.00,,---,0.12,VWS V14.00,2013-04-19 22:38:00,
2013-04-19 18:43:00,70.1,67.0,29.91,South,187,15.0,27.0,90,0.00,,---,0.12,VWS V14.00,2013-04-19 22:43:00,
2013-04-19 18:48:00,69.8,66.7,29.91,SSE,164,17.0,27.0,90,0.00,,---,0.12,VWS V14.00,2013-04-19 22:48:00,
2013-04-19 18:53:00,69.5,66.8,29.90,SSE,150,15.0,27.0,91,0.00,,---,0.12,VWS V14.00,2013-04-19 22:53:00,
2013-04-19 18:58:00,69.4,66.7,29.91,SSE,166,18.0,22.0,91,0.00,,---,0.12,VWS V14.00,2013-04-19 22:58:00,
2013-04-19 19:03:00,69.3,66.6,29.91,South,182,17.0,22.0,91,0.00,,---,0.12,VWS V14.00,2013-04-19 23:03:00,
2013-04-19 19:08:00,69.2,66.8,29.91,South,191,20.0,22.0,92,0.00,,---,0.12,VWS V14.00,2013-04-19 23:08:00,
2013-04-19 19:13:00,69.1,66.7,29.91,SSW,193,11.0,22.0,92,0.00,,---,0.12,VWS V14.00,2013-04-19 23:13:00,
2013-04-19 19:18:00,69.1,66.7,29.91,South,175,11.0,22.0,92,0.00,,---,0.12,VWS V14.00,2013-04-19 23:18:00,
2013-04-19 19:23:00,69.1,66.7,29.91,South,175,17.0,22.0,92,0.00,,---,0.12,VWS V14.00,2013-04-19 23:23:00,
2013-04-19 19:28:00,69.1,66.7,29.91,South,177,8.0,13.0,92,0.00,,---,0.12,VWS V14.00,2013-04-19 23:28:00,
2013-04-19 19:33:00,69.1,66.7,29.90,SSE,158,14.0,18.0,92,0.00,,---,0.12,VWS V14.00,2013-04-19 23:33:00,
2013-04-19 19:38:00,69.2,66.8,29.90,South,190,14.0,18.0,92,0.00,,---,0.12,VWS V14.00,2013-04-19 23:38:00,
2013-04-19 19:43:00,69.3,66.9,29.90,South,187,13.0,21.0,92,0.00,,---,0.12,VWS V14.00,2013-04-19 23:43:00,
2013-04-19 19:48:00,69.2,66.8,29.90,SSE,159,17.0,21.0,92,0.00,,---,0.12,VWS V14.00,2013-04-19 23:48:00,
2013-04-19 19:53:00,69.3,66.9,29.90,SSW,194,11.0,21.0,92,0.00,,---,0.12,VWS V14.00,2013-04-19 23:53:00,
2013-04-19 19:58:00,69.4,67.0,29.89,South,184,14.0,20.0,92,0.00,,---,0.12,VWS V14.00,2013-04-19 23:58:00,
2013-04-19 20:03:00,69.4,67.0,29.89,South,190,11.0,20.0,92,0.00,,---,0.12,VWS V14.00,2013-04-20 00:03:00,
2013-04-19 20:08:00,69.4,67.0,29.90,South,177,7.0,22.0,92,0.00,,---,0.12,VWS V14.00,2013-04-20 00:08:00,
2013-04-19 20:13:00,69.6,67.5,29.90,South,177,16.0,22.0,93,0.00,,---,0.12,VWS V14.00,2013-04-20 00:13:00,
2013-04-19 20:18:00,69.7,67.6,29.90,South,178,9.0,22.0,93,0.00,,---,0.12,VWS V14.00,2013-04-20 00:18:00,
2013-04-19 20:23:00,70.1,68.0,29.90,South,189,18.0,24.0,93,0.00,,---,0.12,VWS V14.00,2013-04-20 00:23:00,
2013-04-19 20:28:00,70.1,68.0,29.91,SSW,193,17.0,19.0,93,0.00,,---,0.12,VWS V14.00,2013-04-20 00:28:00,
2013-04-19 20:33:00,70.2,68.1,29.91,SSW,193,15.0,20.0,93,0.00,,---,0.12,VWS V14.00,2013-04-20 00:33:00,
2013-04-19 20:38:00,70.3,68.2,29.91,SSE,161,16.0,23.0,93,0.00,,---,0.12,VWS V14.00,2013-04-20 00:38:00,
2013-04-19 20:43:00,70.4,68.3,29.91,South,180,15.0,23.0,93,0.00,,---,0.12,VWS V14.00,2013-04-20 00:43:00,
2013-04-19 20:48:00,70.4,68.3,29.91,SSE,157,16.0,23.0,93,0.00,,---,0.12,VWS V14.00,2013-04-20 00:48:00,
2013-04-19 20:53:00,70.4,68.3,29.91,South,189,19.0,23.0,93,0.00,,---,0.12,VWS V14.00,2013-04-20 00:53:00,
2013-04-19 20:58:00,70.6,68.2,29.91,South,185,17.0,18.0,92,0.00,,---,0.12,VWS V14.00,2013-04-20 00:58:00,
2013-04-19 21:03:00,70.6,68.2,29.91,South,176,13.0,22.0,92,0.00,,---,0.12,VWS V14.00,2013-04-20 01:03:00,
2013-04-19 21:08:00,70.5,68.1,29.91,South,181,16.0,22.0,92,0.00,,---,0.12,VWS V14.00,2013-04-20 01:08:00,
2013-04-19 21:13:00,70.5,68.1,29.91,SSW,197,15.0,22.0,92,0.00,,---,0.12,VWS V14.00,2013-04-20 01:13:00,
2013-04-19 21:18:00,70.5,68.1,29.91,SSW,195,10.0,22.0,92,0.00,,---,0.12,VWS V14.00,2013-04-20 01:18:00,
2013-04-19 21:23:00,70.5,68.1,29.90,South,189,10.0,22.0,92,0.00,,---,0.12,VWS V14.00,2013-04-20 01:23:00,
2013-04-19 21:28:00,70.3,67.9,29.90,South,178,9.0,15.0,92,0.00,,---,0.12,VWS V14.00,2013-04-20 01:28:00,
2013-04-19 21:33:00,70.4,68.0,29.90,South,187,17.0,22.0,92,0.00,,---,0.12,VWS V14.00,2013-04-20 01:33:00,
2013-04-19 21:38:00,70.2,67.8,29.90,SSW,202,17.0,23.0,92,0.00,,---,0.12,VWS V14.00,2013-04-20 01:38:00,
2013-04-19 21:43:00,70.3,68.2,29.90,South,180,13.0,24.0,93,0.00,,---,0.12,VWS V14.00,2013-04-20 01:43:00,
2013-04-19 21:48:00,70.2,67.8,29.90,South,187,10.0,24.0,92,0.00,,---,0.12,VWS V14.00,2013-04-20 01:48:00,
2013-04-19 21:53:00,70.2,68.1,29.90,SSW,197,14.0,24.0,93,0.00,,---,0.12,VWS V14.00,2013-04-20 01:53:00,
2013-04-19 21:58:00,70.3,67.9,29.90,South,187,11.0,17.0,92,0.00,,---,0.12,VWS V14.00,2013-04-20 01:58:00,
2013-04-19 22:03:00,70.3,67.9,29.90,South,181,18.0,22.0,92,0.00,,---,0.12,VWS V14.00,2013-04-20 02:03:00,
2013-04-19 22:08:00,70.4,68.0,29.90,SSW,193,11.0,27.0,92,0.00,,---,0.12,VWS V14.00,2013-04-20 02:08:00,
2013-04-19 22:13:00,70.3,67.9,29.91,SSW,192,10.0,27.0,92,0.00,,---,0.12,VWS V14.00,2013-04-20 02:13:00,
2013-04-19 22:18:00,70.3,67.9,29.90,SSE,156,13.0,27.0,92,0.00,,---,0.12,VWS V14.00,2013-04-20 02:18:00,
2013-04-19 22:23:00,70.3,67.9,29.90,SSE,166,13.0,27.0,92,0.00,,---,0.12,VWS V14.00,2013-04-20 02:23:00,
2013-04-19 22:28:00,70.4,68.0,29.90,South,191,16.0,20.0,92,0.00,,---,0.12,VWS V14.00,2013-04-20 02:28:00,
2013-04-19 22:33:00,70.5,68.1,29.90,South,172,12.0,22.0,92,0.00,,---,0.12,VWS V14.00,2013-04-20 02:33:00,
2013-04-19 22:38:00,70.5,68.1,29.90,SSW,197,13.0,24.0,92,0.00,,---,0.12,VWS V14.00,2013-04-20 02:38:00,
2013-04-19 22:44:00,70.6,68.2,29.91,WSW,247,8.0,24.0,92,0.00,,---,0.12,VWS V14.00,2013-04-20 02:44:00,
2013-04-19 22:49:00,70.4,66.7,29.92,WSW,253,18.0,25.0,88,0.00,,---,0.12,VWS V14.00,2013-04-20 02:49:00,
2013-04-19 22:54:00,68.9,65.8,29.92,SW,216,13.0,25.0,90,0.96,,---,0.16,VWS V14.00,2013-04-20 02:54:00,
2013-04-19 22:59:00,67.5,65.4,29.92,South,189,13.0,16.0,93,3.67,,---,0.36,VWS V14.00,2013-04-20 02:59:00,
2013-04-19 23:04:00,66.9,65.1,29.92,SSW,210,12.0,16.0,94,0.88,,---,0.44,VWS V14.00,2013-04-20 03:04:00,
2013-04-19 23:09:00,66.7,64.9,29.91,South,179,14.0,16.0,94,0.72,,---,0.59,VWS V14.00,2013-04-20 03:09:00,
2013-04-19 23:14:00,66.5,65.0,29.91,SW,216,8.0,16.0,95,0.21,,---,0.63,VWS V14.00,2013-04-20 03:14:00,
2013-04-19 23:19:00,66.5,65.0,29.91,SSW,199,6.0,16.0,95,0.10,,---,0.64,VWS V14.00,2013-04-20 03:19:00,
2013-04-19 23:24:00,66.5,65.0,29.91,SSW,195,7.0,16.0,95,0.38,,---,0.67,VWS V14.00,2013-04-20 03:24:00,
2013-04-19 23:29:00,66.5,65.0,29.91,SSW,195,5.0,7.0,95,0.19,,---,0.68,VWS V14.00,2013-04-20 03:29:00,
2013-04-19 23:34:00,66.6,65.1,29.92,South,180,8.0,15.0,95,0.18,,---,0.70,VWS V14.00,2013-04-20 03:34:00,
2013-04-19 23:39:00,66.6,65.1,29.92,South,181,7.0,15.0,95,0.46,,---,0.72,VWS V14.00,2013-04-20 03:39:00,
2013-04-19 23:44:00,66.6,65.1,29.91,SSW,202,4.0,15.0,95,0.19,,---,0.73,VWS V14.00,2013-04-20 03:44:00,
2013-04-19 23:49:00,66.6,65.1,29.90,SSW,195,4.0,15.0,95,0.15,,---,0.74,VWS V14.00,2013-04-20 03:49:00,
2013-04-19 23:54:00,66.5,65.3,29.91,SSE,158,6.0,15.0,96,0.22,,---,0.76,VWS V14.00,2013-04-20 03:54:00,
2013-04-19 23:59:00,66.5,65.3,29.92,South,177,7.0,11.0,96,0.12,,---,0.00,VWS V14.00,2013-04-20 03:59:00,